Portada
METAR-TAF:

METAR-TAF

Aeroports :

Gibraltar, Gibraltar

latitud: 36-09N, longitud: 005-21W, altitud: 5 m

Observació

L'informe es va fer fa 39 minuts, a les 10:20 UTC
Vent 12 kt del Oest
Temperatura 23°C
Humitat 69%
Pressió 1013 hPa
Visibilitat 10 km o més
Escasses núvols a una alçada de 2800 ft

METAR: LXGB 031020Z 27012KT 9999 FEW028 23/17 Q1013 NOSIG RMK BLU BLU

Hora: 12:59 (10:59 UTC)

Pronòstic

L'informe es va fer fa 3 hores i 19 minuts, a les 07:40 UTC
Pronòstic vàlid del 03 a les 09 UTC al 03 a les 18 UTC
Vent 12 kt del Oest/Sud-Oest
Visibilitat 10 km o més
Escasses núvols a una alçada de 2500 ft
Probabilitat 40% :
Temporalment
l' 03 a les 09 UTC al 03 a les 16 UTC
Vent 15 kt del Sud-Oest amb ràfegues de 25 kt

TAF: LXGB 030740Z 0309/0318 25012KT 9999 FEW025 PROB40 TEMPO 0309/0316 23015G25KT 520002

Observacions i pronòstics meteorològics de més de 4000 aeroports (METAR i TAF).

Les estacions disponibles són els punts grocs i vermells al mapa.

Posi el ratolí al punt desitjat per veure el nom de l'estació.

Feu clic per veure les observacions i els pronòstics meteorològics.

Per canviar el mapa: feu clic els botons verds amb una creu de color negre per apropar; al botó verd amb un guió per allunyar la imatge; o en les fletxes verdes per a mapes adjacents.


METAR-TAF: